Terminal Aerodrome Forecast
Issued by NWS

Home | Current Version | Previous Version | Text Only | Print | Product List | Glossary On
Versions: 1 2 3 4 5 6 7 8 9 10 11 12 13 14 15 16 17
000
FTUS46 KMTR 031127
TAFSNS
TAF
KSNS 031127Z 0312/0412 28007KT P6SM OVC020
     FM031700 29005KT P6SM SCT025
     FM031900 29011KT P6SM SKC
     FM040300 29009KT P6SM SCT015
     FM040500 29007KT P6SM BKN015=

USA.gov is the U.S. government's official web portal to all federal, state and local government web resources and services.